Terminal Aerodrome Forecast
Issued by NWS San Angelo, TX

Home | Current Version | Previous Version | Text Only | Print | Product List | Glossary On
Versions: 1 2 3 4 5 6 7 8 9 10 11 12 13 14
286
FTUS44 KSJT 210534
TAFABI
TAF
KABI 210534Z 2106/2206 15015G25KT P6SM OVC025
     FM210700 15015G25KT 6SM -SHRA OVC020
     FM210800 15015G25KT 6SM -SHRA OVC015
     FM211400 16014G22KT P6SM VCSH OVC015
     FM211600 22017G27KT P6SM BKN025
     FM212000 31018G26KT P6SM SCT250=

USA.gov is the U.S. government's official web portal to all federal, state and local government web resources and services.